Time;durP1;ratioP1;P1;durP2;ratioP2;P2;SDS_P1;SDS_P2;PMS_P1;PMS_P2;Temp;Humidity;BMP_temperature;BMP_pressure;BME280_temperature;BME280_humidity;BME280_pressure;Samples;Min_cycle;Max_cycle;Signal;HPM_P1;HPM_P2
2024/01/05 00:01:52;;;;;;;;;;;;;;;;;;5036879;28;19920;-81
2024/01/05 00:04:18;;;;;;;;;;;;;;;;;;5028213;28;20432;-81
2024/01/05 00:06:44;;;;;;;;;;;;;;;;;;5031162;28;20286;-81
2024/01/05 00:09:10;;;;;;;;;;;;;;;;;;5027060;28;20354;-81
2024/01/05 00:11:36;;;;;;;;;;;;;;;;;;5028690;28;20334;-81
2024/01/05 00:14:02;;;;;;;;;;;;;;;;;;5025245;28;19916;-81
2024/01/05 00:16:28;;;;;;;;;;;;;;;;;;5023592;28;19912;-81
2024/01/05 00:18:54;;;;;;;;;;;;;;;;;;5035412;28;19962;-81
2024/01/05 00:21:20;;;;;;;;;;;;;;;;;;5019124;28;19916;-81
2024/01/05 00:23:46;;;;;;;;;;;;;;;;;;5026637;28;19996;-81
2024/01/05 00:26:12;;;;;;;;;;;;;;;;;;5027250;28;20229;-81
2024/01/05 00:28:38;;;;;;;;;;;;;;;;;;5029629;28;20000;-80
2024/01/05 00:31:04;;;;;;;;;;;;;;;;;;5030046;28;19916;-81
2024/01/05 00:33:29;;;;;;;;;;;;;;;;;;5039049;28;19916;-81
2024/01/05 00:35:56;;;;;;;;;;;;;;;;;;5028571;28;19948;-81
2024/01/05 00:38:21;;;;;;;;;;;;;;;;;;5030436;28;19905;-81
2024/01/05 00:40:47;;;;;;;;;;;;;;;;;;5030609;28;19970;-81
2024/01/05 00:43:13;;;;;;;;;;;;;;;;;;5024747;28;19948;-81
2024/01/05 00:45:39;;;;;;;;;;;;;;;;;;5028816;28;19909;-81
2024/01/05 00:48:05;;;;;;;;;;;;;;;;;;5018661;28;19921;-81
2024/01/05 00:50:31;;;;;;;;;;;;;;;;;;5028982;28;19916;-81
2024/01/05 00:52:56;;;;;;;;;;;;;;;;;;5025022;28;20055;-81
2024/01/05 00:55:24;;;;;;;;;;;;;;;;;;5016782;28;19913;-81
2024/01/05 00:57:49;;;;;;;;;;;;;;;;;;5025888;28;20543;-81
2024/01/05 01:00:16;;;;;;;;;;;;;;;;;;5022634;28;19940;-81
2024/01/05 01:02:42;;;;;;;;;;;;;;;;;;5025236;28;20395;-81
2024/01/05 01:05:07;;;;;;;;;;;;;;;;;;5022160;28;19908;-81
2024/01/05 01:07:33;;;;;;;;;;;;;;;;;;5026430;28;19932;-81
2024/01/05 01:09:59;;;;;;;;;;;;;;;;;;5021888;28;19920;-81
2024/01/05 01:12:25;;;;;;;;;;;;;;;;;;5031206;28;19919;-81
2024/01/05 01:14:51;;;;;;;;;;;;;;;;;;5031300;28;19917;-81
2024/01/05 01:17:17;;;;;;;;;;;;;;;;;;5015344;28;19910;-81
2024/01/05 01:19:43;;;;;;;;;;;;;;;;;;5028157;28;19917;-81
2024/01/05 01:22:09;;;;;;;;;;;;;;;;;;5025541;28;20392;-81
2024/01/05 01:24:34;;;;;;;;;;;;;;;;;;5023396;28;20402;-81
2024/01/05 01:27:00;;;;;;;;;;;;;;;;;;5024456;28;19913;-81
2024/01/05 01:29:26;;;;;;;;;;;;;;;;;;5013319;28;19940;-80
2024/01/05 01:31:52;;;;;;;;;;;;;;;;;;5023775;28;19921;-81
2024/01/05 01:34:18;;;;;;;;;;;;;;;;;;5028995;28;19948;-81
2024/01/05 01:36:44;;;;;;;;;;;;;;;;;;5026829;28;20036;-81
2024/01/05 01:39:11;;;;;;;;;;;;;;;;;;5027020;28;19909;-81
2024/01/05 01:41:37;;;;;;;;;;;;;;;;;;5024689;28;20000;-81
2024/01/05 01:44:02;;;;;;;;;;;;;;;;;;5023535;28;20021;-81
2024/01/05 01:46:29;;;;;;;;;;;;;;;;;;5016727;28;19932;-81
2024/01/05 01:48:54;;;;;;;;;;;;;;;;;;5025322;28;19909;-81
2024/01/05 01:51:20;;;;;;;;;;;;;;;;;;5021966;28;20374;-81
2024/01/05 01:53:46;;;;;;;;;;;;;;;;;;5024594;28;20367;-81
2024/01/05 01:56:13;;;;;;;;;;;;;;;;;;5023936;28;20383;-81
2024/01/05 01:58:39;;;;;;;;;;;;;;;;;;5020466;28;19919;-81
2024/01/05 02:01:05;;;;;;;;;;;;;;;;;;5017686;28;19987;-81
2024/01/05 02:03:31;;;;;;;;;;;;;;;;;;5026266;28;19909;-80
2024/01/05 02:05:56;;;;;;;;;;;;;;;;;;5024566;28;19909;-81
2024/01/05 02:08:22;;;;;;;;;;;;;;;;;;5019442;28;20012;-81
2024/01/05 02:10:48;;;;;;;;;;;;;;;;;;5016986;28;19916;-80
2024/01/05 02:13:15;;;;;;;;;;;;;;;;;;5023833;28;19913;-80
2024/01/05 02:15:41;;;;;;;;;;;;;;;;;;5022738;28;20360;-80
2024/01/05 02:18:07;;;;;;;;;;;;;;;;;;5018676;28;19943;-80
2024/01/05 02:20:32;;;;;;;;;;;;;;;;;;5017593;28;19913;-80
2024/01/05 02:22:58;;;;;;;;;;;;;;;;;;5024275;28;20001;-80
2024/01/05 02:25:24;;;;;;;;;;;;;;;;;;5015278;28;19916;-80
2024/01/05 02:27:50;;;;;;;;;;;;;;;;;;5025655;28;19913;-80
2024/01/05 02:30:16;;;;;;;;;;;;;;;;;;5020576;28;19944;-80
2024/01/05 02:32:44;;;;;;;;;;;;;;;;;;5028327;28;19928;-80
2024/01/05 02:35:10;;;;;;;;;;;;;;;;;;5035066;28;19955;-80
2024/01/05 02:37:35;;;;;;;;;;;;;;;;;;5022830;28;20010;-80
2024/01/05 02:40:02;;;;;;;;;;;;;;;;;;5029134;28;19932;-80
2024/01/05 02:42:28;;;;;;;;;;;;;;;;;;5022762;28;20016;-80
2024/01/05 02:44:54;;;;;;;;;;;;;;;;;;5022561;28;19929;-80
2024/01/05 02:47:19;;;;;;;;;;;;;;;;;;5015822;28;19909;-80
2024/01/05 02:49:45;;;;;;;;;;;;;;;;;;5017972;28;19909;-80
2024/01/05 02:52:11;;;;;;;;;;;;;;;;;;5015428;28;19953;-80
2024/01/05 02:54:37;;;;;;;;;;;;;;;;;;5018363;28;19913;-80
2024/01/05 02:57:03;;;;;;;;;;;;;;;;;;5018097;28;19909;-80
2024/01/05 02:59:29;;;;;;;;;;;;;;;;;;5021650;28;20508;-80
2024/01/05 03:01:55;;;;;;;;;;;;;;;;;;5022657;28;19909;-80
2024/01/05 03:04:21;;;;;;;;;;;;;;;;;;5017220;28;19943;-80
2024/01/05 03:06:47;;;;;;;;;;;;;;;;;;5025319;28;19939;-80
2024/01/05 03:09:12;;;;;;;;;;;;;;;;;;5026140;28;19920;-80
2024/01/05 03:11:38;;;;;;;;;;;;;;;;;;5023152;28;19975;-79
2024/01/05 03:14:04;;;;;;;;;;;;;;;;;;5014991;28;20454;-80
2024/01/05 03:16:30;;;;;;;;;;;;;;;;;;5020442;28;19955;-80
2024/01/05 03:18:56;;;;;;;;;;;;;;;;;;5016792;28;20000;-80
2024/01/05 03:21:22;;;;;;;;;;;;;;;;;;5029167;28;19909;-80
2024/01/05 03:23:47;;;;;;;;;;;;;;;;;;5020724;28;19909;-80
2024/01/05 03:26:13;;;;;;;;;;;;;;;;;;5031239;28;19909;-80
2024/01/05 03:28:39;;;;;;;;;;;;;;;;;;5031166;28;19954;-80
2024/01/05 03:31:05;;;;;;;;;;;;;;;;;;5026776;28;19913;-80
2024/01/05 03:33:31;;;;;;;;;;;;;;;;;;5020250;28;19917;-80
2024/01/05 03:35:57;;;;;;;;;;;;;;;;;;5023942;28;20362;-79
2024/01/05 03:38:22;;;;;;;;;;;;;;;;;;5018454;28;20257;-80
2024/01/05 03:40:48;;;;;;;;;;;;;;;;;;5028044;28;20359;-80
2024/01/05 03:43:14;;;;;;;;;;;;;;;;;;5025970;28;19909;-80
2024/01/05 03:45:40;;;;;;;;;;;;;;;;;;5032113;28;19995;-80
2024/01/05 03:48:06;;;;;;;;;;;;;;;;;;5023721;28;19955;-79
2024/01/05 03:50:32;;;;;;;;;;;;;;;;;;5025981;28;19916;-80
2024/01/05 03:52:57;;;;;;;;;;;;;;;;;;5019033;28;19936;-80
2024/01/05 03:55:23;;;;;;;;;;;;;;;;;;5021297;28;19985;-80
2024/01/05 03:57:49;;;;;;;;;;;;;;;;;;5030650;28;19952;-79
2024/01/05 04:00:15;;;;;;;;;;;;;;;;;;5025001;28;19909;-80
2024/01/05 04:02:41;;;;;;;;;;;;;;;;;;5030384;28;19921;-80
2024/01/05 04:05:07;;;;;;;;;;;;;;;;;;5025392;28;19912;-80
2024/01/05 04:07:32;;;;;;;;;;;;;;;;;;5025847;28;19959;-79
2024/01/05 04:09:58;;;;;;;;;;;;;;;;;;5021737;28;19913;-80
2024/01/05 04:12:24;;;;;;;;;;;;;;;;;;5023658;28;19913;-80
2024/01/05 04:14:50;;;;;;;;;;;;;;;;;;5019101;28;19913;-80
2024/01/05 04:17:16;;;;;;;;;;;;;;;;;;5016934;28;19913;-80
2024/01/05 04:19:42;;;;;;;;;;;;;;;;;;5024930;28;20059;-80
2024/01/05 04:22:08;;;;;;;;;;;;;;;;;;5027467;28;20434;-79
2024/01/05 04:24:34;;;;;;;;;;;;;;;;;;5028178;28;19909;-80
2024/01/05 04:27:00;;;;;;;;;;;;;;;;;;5025098;28;19932;-81
2024/01/05 04:29:26;;;;;;;;;;;;;;;;;;5028473;28;19908;-81
2024/01/05 04:31:52;;;;;;;;;;;;;;;;;;5028577;28;19917;-81
2024/01/05 04:34:18;;;;;;;;;;;;;;;;;;5021082;28;19936;-81
2024/01/05 04:36:44;;;;;;;;;;;;;;;;;;5024760;28;20040;-81
2024/01/05 04:39:10;;;;;;;;;;;;;;;;;;5027505;28;19987;-81
2024/01/05 04:41:36;;;;;;;;;;;;;;;;;;5020681;28;19999;-81
2024/01/05 04:44:01;;;;;;;;;;;;;;;;;;5030630;28;19909;-80
2024/01/05 04:46:27;;;;;;;;;;;;;;;;;;5014675;28;19910;-79
2024/01/05 04:48:53;;;;;;;;;;;;;;;;;;5025507;28;20371;-79
2024/01/05 04:51:19;;;;;;;;;;;;;;;;;;5024420;28;19956;-78
2024/01/05 04:53:46;;;;;;;;;;;;;;;;;;5024767;28;19913;-78
2024/01/05 04:56:12;;;;;;;;;;;;;;;;;;5012226;28;19924;-78
2024/01/05 04:58:38;;;;;;;;;;;;;;;;;;5015827;28;20375;-78
2024/01/05 05:01:03;;;;;;;;;;;;;;;;;;5022109;28;20593;-78
2024/01/05 05:03:30;;;;;;;;;;;;;;;;;;5025542;28;20284;-78
2024/01/05 05:05:56;;;;;;;;;;;;;;;;;;5021994;28;19913;-78
2024/01/05 05:08:22;;;;;;;;;;;;;;;;;;5025789;28;19913;-78
2024/01/05 05:10:48;;;;;;;;;;;;;;;;;;5024114;28;19999;-78
2024/01/05 05:13:14;;;;;;;;;;;;;;;;;;5029431;28;19938;-78
2024/01/05 05:15:40;;;;;;;;;;;;;;;;;;5024618;28;19975;-77
2024/01/05 05:18:06;;;;;;;;;;;;;;;;;;5025932;28;19908;-78
2024/01/05 05:20:31;;;;;;;;;;;;;;;;;;5020879;28;20357;-77
2024/01/05 05:22:57;;;;;;;;;;;;;;;;;;5019478;28;19913;-77
2024/01/05 05:25:23;;;;;;;;;;;;;;;;;;5026853;28;20098;-77
2024/01/05 05:27:49;;;;;;;;;;;;;;;;;;5025632;28;20363;-78
2024/01/05 05:30:15;;;;;;;;;;;;;;;;;;5025478;28;20314;-78
2024/01/05 05:32:41;;;;;;;;;;;;;;;;;;5024170;28;19925;-78
2024/01/05 05:35:07;;;;;;;;;;;;;;;;;;5020337;28;19909;-77
2024/01/05 05:37:33;;;;;;;;;;;;;;;;;;5020196;28;20314;-78
2024/01/05 05:39:59;;;;;;;;;;;;;;;;;;5021376;28;20268;-78
2024/01/05 05:42:24;;;;;;;;;;;;;;;;;;5030123;28;20349;-78
2024/01/05 05:44:50;;;;;;;;;;;;;;;;;;5027262;28;19947;-78
2024/01/05 05:47:16;;;;;;;;;;;;;;;;;;5019925;28;19910;-78
2024/01/05 05:49:42;;;;;;;;;;;;;;;;;;5022374;28;19995;-78
2024/01/05 05:52:08;;;;;;;;;;;;;;;;;;5024299;28;19912;-78
2024/01/05 05:54:34;;;;;;;;;;;;;;;;;;5020659;28;19917;-78
2024/01/05 05:56:59;;;;;;;;;;;;;;;;;;5030173;28;20356;-78
2024/01/05 05:59:25;;;;;;;;;;;;;;;;;;5025648;28;20355;-78
2024/01/05 06:01:51;;;;;;;;;;;;;;;;;;5021442;28;20545;-78
2024/01/05 06:04:17;;;;;;;;;;;;;;;;;;5019140;28;19960;-78
2024/01/05 06:06:43;;;;;;;;;;;;;;;;;;5027150;28;19947;-78
2024/01/05 06:09:09;;;;;;;;;;;;;;;;;;5012660;28;19944;-79
2024/01/05 06:11:34;;;;;;;;;;;;;;;;;;5021038;28;19913;-79
2024/01/05 06:14:04;;;;;;;;;;;;;;;;;;5017256;28;20368;-78
2024/01/05 06:16:29;;;;;;;;;;;;;;;;;;5023545;28;20344;-79
2024/01/05 06:18:55;;;;;;;;;;;;;;;;;;5022531;28;19991;-79
2024/01/05 06:21:21;;;;;;;;;;;;;;;;;;5028757;28;19917;-79
2024/01/05 06:23:47;;;;;;;;;;;;;;;;;;5019043;28;19964;-79
2024/01/05 06:26:13;;;;;;;;;;;;;;;;;;5021244;28;19936;-79
2024/01/05 06:28:39;;;;;;;;;;;;;;;;;;5015880;28;19909;-79
2024/01/05 06:31:05;;;;;;;;;;;;;;;;;;5016836;28;19917;-79
2024/01/05 06:33:31;;;;;;;;;;;;;;;;;;5029379;28;19935;-79
2024/01/05 06:35:56;;;;;;;;;;;;;;;;;;5019315;28;19964;-79
2024/01/05 06:38:22;;;;;;;;;;;;;;;;;;5023309;28;20450;-79
2024/01/05 06:40:48;;;;;;;;;;;;;;;;;;5014664;28;20528;-79
2024/01/05 06:43:14;;;;;;;;;;;;;;;;;;5027587;28;20685;-79
2024/01/05 06:45:40;;;;;;;;;;;;;;;;;;5021923;28;20338;-79
2024/01/05 06:48:06;;;;;;;;;;;;;;;;;;5018730;28;19909;-79
2024/01/05 06:50:31;;;;;;;;;;;;;;;;;;5032651;28;20339;-79
2024/01/05 06:52:57;;;;;;;;;;;;;;;;;;5020447;28;19917;-79
2024/01/05 06:55:23;;;;;;;;;;;;;;;;;;5024309;28;19916;-79
2024/01/05 06:57:49;;;;;;;;;;;;;;;;;;5023075;28;20395;-79
2024/01/05 07:00:15;;;;;;;;;;;;;;;;;;5028611;28;19910;-79
2024/01/05 07:02:41;;;;;;;;;;;;;;;;;;5023414;28;19975;-79
2024/01/05 07:05:07;;;;;;;;;;;;;;;;;;5026701;28;19909;-79
2024/01/05 07:07:32;;;;;;;;;;;;;;;;;;5030281;28;19919;-79
2024/01/05 07:09:58;;;;;;;;;;;;;;;;;;5024705;28;19916;-79
2024/01/05 07:12:24;;;;;;;;;;;;;;;;;;5029050;28;19921;-79
2024/01/05 07:14:50;;;;;;;;;;;;;;;;;;5028594;28;19913;-79
2024/01/05 07:17:16;;;;;;;;;;;;;;;;;;5031200;28;19909;-79
2024/01/05 07:19:41;;;;;;;;;;;;;;;;;;5022508;28;20016;-79
2024/01/05 07:22:07;;;;;;;;;;;;;;;;;;5029132;28;19909;-79
2024/01/05 07:24:35;;;;;;;;;;;;;;;;;;5016299;28;19914;-79
2024/01/05 07:27:01;;;;;;;;;;;;;;;;;;5026887;28;19915;-79
2024/01/05 07:29:27;;;;;;;;;;;;;;;;;;5027891;28;19912;-79
2024/01/05 07:31:52;;;;;;;;;;;;;;;;;;5025777;28;20016;-80
2024/01/05 07:34:18;;;;;;;;;;;;;;;;;;5022679;28;19913;-79
2024/01/05 07:36:44;;;;;;;;;;;;;;;;;;5021742;28;19913;-79
2024/01/05 07:39:11;;;;;;;;;;;;;;;;;;5028886;28;19978;-79
2024/01/05 07:41:36;;;;;;;;;;;;;;;;;;5029985;28;19916;-79
2024/01/05 07:44:02;;;;;;;;;;;;;;;;;;5030380;28;19908;-79
2024/01/05 07:46:29;;;;;;;;;;;;;;;;;;5031245;28;19909;-79
2024/01/05 07:48:55;;;;;;;;;;;;;;;;;;5017427;28;19917;-79
2024/01/05 07:51:20;;;;;;;;;;;;;;;;;;5026372;28;19916;-78
2024/01/05 07:53:49;;;;;;;;;;;;;;;;;;5029382;28;19917;-78
2024/01/05 07:56:17;;;;;;;;;;;;;;;;;;5018910;28;19909;-79
2024/01/05 07:58:43;;;;;;;;;;;;;;;;;;5023241;28;19959;-78
2024/01/05 08:01:08;;;;;;;;;;;;;;;;;;5029209;28;20018;-79
2024/01/05 08:03:34;;;;;;;;;;;;;;;;;;5029664;28;19932;-78
2024/01/05 08:06:00;;;;;;;;;;;;;;;;;;5039977;28;19909;-78
2024/01/05 08:08:26;;;;;;;;;;;;;;;;;;5031174;28;19916;-78
2024/01/05 08:10:52;;;;;;;;;;;;;;;;;;5020978;28;19959;-79
2024/01/05 08:13:19;;;;;;;;;;;;;;;;;;5031275;28;19936;-80
2024/01/05 08:15:45;;;;;;;;;;;;;;;;;;5024565;28;19958;-80
2024/01/05 08:18:11;;;;;;;;;;;;;;;;;;5026051;28;19952;-78
2024/01/05 08:20:37;;;;;;;;;;;;;;;;;;5024666;28;19955;-80
2024/01/05 08:23:03;;;;;;;;;;;;;;;;;;5034658;28;20573;-80
2024/01/05 08:25:28;;;;;;;;;;;;;;;;;;5017228;28;20360;-79
2024/01/05 08:27:54;;;;;;;;;;;;;;;;;;5028701;28;20348;-79
2024/01/05 08:30:21;;;;;;;;;;;;;;;;;;5023072;28;19920;-79
2024/01/05 08:32:49;;;;;;;;;;;;;;;;;;5028677;28;19943;-80
2024/01/05 08:35:15;;;;;;;;;;;;;;;;;;5021889;28;20387;-79
2024/01/05 08:37:41;;;;;;;;;;;;;;;;;;5021938;28;19909;-79
2024/01/05 08:40:07;;;;;;;;;;;;;;;;;;5021229;28;19944;-79
2024/01/05 08:42:33;;;;;;;;;;;;;;;;;;5022029;28;20007;-79
2024/01/05 08:44:59;;;;;;;;;;;;;;;;;;5033537;28;19909;-77
2024/01/05 08:47:25;;;;;;;;;;;;;;;;;;5033363;28;20466;-79
2024/01/05 08:49:50;;;;;;;;;;;;;;;;;;5030202;28;20319;-79
2024/01/05 08:52:16;;;;;;;;;;;;;;;;;;5032970;28;20286;-78
2024/01/05 08:54:42;;;;;;;;;;;;;;;;;;5028924;28;20323;-80
2024/01/05 08:57:11;;;;;;;;;;;;;;;;;;5025571;28;19958;-79
2024/01/05 08:59:38;;;;;;;;;;;;;;;;;;5032411;28;20407;-79
2024/01/05 09:02:04;;;;;;;;;;;;;;;;;;5020367;28;19913;-78
2024/01/05 09:04:31;;;;;;;;;;;;;;;;;;5030193;28;20059;-78
2024/01/05 09:06:57;;;;;;;;;;;;;;;;;;5029554;28;20000;-78
2024/01/05 09:09:23;;;;;;;;;;;;;;;;;;5018526;28;19919;-83
2024/01/05 09:11:49;;;;;;;;;;;;;;;;;;5021341;28;19917;-79
2024/01/05 09:14:15;;;;;;;;;;;;;;;;;;5032980;28;19936;-78
2024/01/05 09:16:41;;;;;;;;;;;;;;;;;;5025354;28;19995;-78
2024/01/05 09:19:06;;;;;;;;;;;;;;;;;;5019493;28;20025;-80
2024/01/05 09:21:32;;;;;;;;;;;;;;;;;;5028812;28;19940;-79
2024/01/05 09:23:58;;;;;;;;;;;;;;;;;;5016341;28;19916;-80
2024/01/05 09:26:24;;;;;;;;;;;;;;;;;;5023427;28;20039;-85
2024/01/05 09:28:50;;;;;;;;;;;;;;;;;;5029718;28;19913;-80
2024/01/05 09:31:16;;;;;;;;;;;;;;;;;;5019219;28;19913;-82
2024/01/05 09:33:43;;;;;;;;;;;;;;;;;;5021199;28;19909;-81
2024/01/05 09:36:09;;;;;;;;;;;;;;;;;;5029638;28;20739;-87
2024/01/05 09:38:35;;;;;;;;;;;;;;;;;;5022842;28;19967;-77
2024/01/05 09:41:00;;;;;;;;;;;;;;;;;;5026584;28;19948;-83
2024/01/05 09:43:26;;;;;;;;;;;;;;;;;;5017048;28;19909;-81
2024/01/05 09:45:52;;;;;;;;;;;;;;;;;;5017254;28;19967;-87
2024/01/05 09:48:18;;;;;;;;;;;;;;;;;;5021352;28;19917;-79
2024/01/05 09:50:44;;;;;;;;;;;;;;;;;;5019971;28;19913;-78
2024/01/05 09:53:12;;;;;;;;;;;;;;;;;;5025080;28;20276;-78
2024/01/05 09:55:38;;;;;;;;;;;;;;;;;;5023135;28;20303;-79
2024/01/05 09:58:05;;;;;;;;;;;;;;;;;;5016940;28;19912;-78
2024/01/05 10:00:31;;;;;;;;;;;;;;;;;;5025616;28;19910;-78
2024/01/05 10:02:57;;;;;;;;;;;;;;;;;;5024672;28;19967;-78
2024/01/05 10:05:23;;;;;;;;;;;;;;;;;;5026739;28;19924;-78
2024/01/05 10:07:49;;;;;;;;;;;;;;;;;;5028836;28;19909;-78
2024/01/05 10:10:15;;;;;;;;;;;;;;;;;;5028072;28;19909;-79
2024/01/05 10:12:41;;;;;;;;;;;;;;;;;;5027711;28;19920;-79
2024/01/05 10:15:06;;;;;;;;;;;;;;;;;;5026461;28;20046;-79
2024/01/05 10:17:33;;;;;;;;;;;;;;;;;;5026712;28;20116;-79
2024/01/05 10:19:58;;;;;;;;;;;;;;;;;;5026082;28;19932;-79
2024/01/05 10:22:25;;;;;;;;;;;;;;;;;;5028261;28;19909;-78
2024/01/05 10:24:52;;;;;;;;;;;;;;;;;;5025357;28;21671;-79
2024/01/05 10:27:18;;;;;;;;;;;;;;;;;;5022766;28;19909;-78
2024/01/05 10:29:44;;;;;;;;;;;;;;;;;;5017060;28;20434;-78
2024/01/05 10:32:12;;;;;;;;;;;;;;;;;;5027135;28;19917;-78
2024/01/05 10:34:39;;;;;;;;;;;;;;;;;;5028086;28;19921;-78
2024/01/05 10:37:05;;;;;;;;;;;;;;;;;;5024371;28;19923;-79
2024/01/05 10:39:31;;;;;;;;;;;;;;;;;;5026707;28;20017;-79
2024/01/05 10:41:57;;;;;;;;;;;;;;;;;;5023916;28;20288;-78
2024/01/05 10:44:23;;;;;;;;;;;;;;;;;;5021178;28;19918;-83
2024/01/05 10:46:49;;;;;;;;;;;;;;;;;;5014456;28;19920;-77
2024/01/05 10:49:15;;;;;;;;;;;;;;;;;;5018189;28;19910;-77
2024/01/05 10:51:41;;;;;;;;;;;;;;;;;;5026308;28;19955;-77
2024/01/05 10:54:07;;;;;;;;;;;;;;;;;;5022484;28;19916;-77
2024/01/05 10:56:33;;;;;;;;;;;;;;;;;;5028067;28;19924;-78
2024/01/05 10:58:59;;;;;;;;;;;;;;;;;;5021679;28;19971;-79
2024/01/05 11:01:25;;;;;;;;;;;;;;;;;;5022876;28;19992;-79
2024/01/05 11:03:50;;;;;;;;;;;;;;;;;;5018070;28;19909;-81
2024/01/05 11:06:16;;;;;;;;;;;;;;;;;;5026245;28;19932;-82
2024/01/05 11:10:32;;;;;;;;;;;;;;;;;;5094090;27;19956;-79
2024/01/05 11:12:58;;;;;;;;;;;;;;;;;;5071334;28;20341;-78
2024/01/05 11:15:24;;;;;;;;;;;;;;;;;;5087345;28;19924;-78
2024/01/05 11:17:50;;;;;;;;;;;;;;;;;;5076858;28;19916;-78
2024/01/05 11:20:16;;;;;;;;;;;;;;;;;;5082390;28;19952;-77
2024/01/05 11:22:42;;;;;;;;;;;;;;;;;;5072864;28;19916;-82
2024/01/05 11:25:08;;;;;;;;;;;;;;;;;;5080602;28;19978;-77
2024/01/05 11:27:33;;;;;;;;;;;;;;;;;;5074612;28;19999;-76
2024/01/05 11:29:59;;;;;;;;;;;;;;;;;;5081074;28;20290;-77
2024/01/05 11:32:25;;;;;;;;;;;;;;;;;;5073932;28;19920;-77
2024/01/05 11:34:51;;;;;;;;;;;;;;;;;;5071251;28;20007;-76
2024/01/05 11:37:19;;;;;;;;;;;;;;;;;;5065048;28;19908;-76
2024/01/05 11:39:48;;;;;;;;;;;;;;;;;;5065996;28;20020;-77
2024/01/05 11:42:14;;;;;;;;;;;;;;;;;;5059622;28;19912;-77
2024/01/05 11:44:39;;;;;;;;;;;;;;;;;;5064005;28;20197;-77
2024/01/05 11:47:08;;;;;;;;;;;;;;;;;;5076112;28;19913;-76
2024/01/05 11:49:33;;;;;;;;;;;;;;;;;;5065600;28;19967;-76
2024/01/05 11:51:59;;;;;;;;;;;;;;;;;;5064326;28;19959;-76
2024/01/05 11:54:25;;;;;;;;;;;;;;;;;;5064837;28;19913;-76
2024/01/05 11:56:51;;;;;;;;;;;;;;;;;;5066502;28;19919;-76
2024/01/05 11:59:17;;;;;;;;;;;;;;;;;;5083565;28;19920;-77
2024/01/05 12:01:42;;;;;;;;;;;;;;;;;;5064857;28;20015;-76
2024/01/05 12:04:08;;;;;;;;;;;;;;;;;;5065268;28;19913;-76
2024/01/05 12:06:34;;;;;;;;;;;;;;;;;;5064095;28;19919;-76
2024/01/05 12:09:00;;;;;;;;;;;;;;;;;;5071808;28;19921;-76
2024/01/05 12:11:27;;;;;;;;;;;;;;;;;;5064784;28;20352;-77
2024/01/05 12:13:53;;;;;;;;;;;;;;;;;;5064938;28;19920;-76
2024/01/05 12:16:19;;;;;;;;;;;;;;;;;;5064322;28;19908;-76
2024/01/05 12:18:47;;;;;;;;;;;;;;;;;;5064824;28;19986;-77
2024/01/05 12:21:17;;;;;;;;;;;;;;;;;;5054288;28;19912;-77
2024/01/05 12:23:43;;;;;;;;;;;;;;;;;;5054387;28;20287;-77
2024/01/05 12:26:09;;;;;;;;;;;;;;;;;;5054700;28;19966;-76
2024/01/05 12:28:35;;;;;;;;;;;;;;;;;;5056703;28;19999;-76
2024/01/05 12:31:02;;;;;;;;;;;;;;;;;;5050836;28;20349;-76
2024/01/05 12:33:28;;;;;;;;;;;;;;;;;;5050240;28;20182;-76
2024/01/05 12:35:53;;;;;;;;;;;;;;;;;;5051930;28;19920;-77
2024/01/05 12:38:19;;;;;;;;;;;;;;;;;;5050618;28;19912;-76
2024/01/05 12:40:46;;;;;;;;;;;;;;;;;;5050424;28;19954;-77
2024/01/05 12:43:16;;;;;;;;;;;;;;;;;;5051034;28;19955;-76
2024/01/05 12:45:42;;;;;;;;;;;;;;;;;;5050387;28;19947;-76
2024/01/05 12:48:08;;;;;;;;;;;;;;;;;;5051160;28;20394;-77
2024/01/05 12:50:34;;;;;;;;;;;;;;;;;;5057833;28;19913;-76
2024/01/05 12:53:00;;;;;;;;;;;;;;;;;;5050578;28;19920;-76
2024/01/05 12:55:26;;;;;;;;;;;;;;;;;;5050409;28;20379;-76
2024/01/05 12:57:51;;;;;;;;;;;;;;;;;;5051113;28;19966;-76
2024/01/05 13:00:17;;;;;;;;;;;;;;;;;;5050577;28;19999;-76
2024/01/05 13:02:43;;;;;;;;;;;;;;;;;;5050333;28;19909;-76
2024/01/05 13:05:09;;;;;;;;;;;;;;;;;;5053060;28;19916;-76
2024/01/05 13:07:35;;;;;;;;;;;;;;;;;;5054108;28;20022;-76
2024/01/05 13:10:01;;;;;;;;;;;;;;;;;;5049907;28;19928;-76
2024/01/05 13:12:27;;;;;;;;;;;;;;;;;;5049853;28;20395;-76
2024/01/05 13:14:53;;;;;;;;;;;;;;;;;;5049345;28;20415;-76
2024/01/05 13:17:18;;;;;;;;;;;;;;;;;;5051014;28;20379;-76
2024/01/05 13:19:44;;;;;;;;;;;;;;;;;;5049683;28;20298;-76
2024/01/05 13:22:11;;;;;;;;;;;;;;;;;;5050134;28;19970;-76
2024/01/05 13:24:37;;;;;;;;;;;;;;;;;;5050275;28;19916;-77
2024/01/05 13:27:05;;;;;;;;;;;;;;;;;;5049989;28;19995;-76
2024/01/05 13:29:31;;;;;;;;;;;;;;;;;;5049809;28;19917;-76
2024/01/05 13:31:57;;;;;;;;;;;;;;;;;;5047946;28;19909;-77
2024/01/05 13:34:22;;;;;;;;;;;;;;;;;;5048027;28;20004;-76
2024/01/05 13:36:48;;;;;;;;;;;;;;;;;;5038698;28;19924;-77
2024/01/05 13:39:14;;;;;;;;;;;;;;;;;;5048054;28;20394;-76
2024/01/05 13:41:40;;;;;;;;;;;;;;;;;;5048836;28;20410;-76
2024/01/05 13:44:06;;;;;;;;;;;;;;;;;;5046267;28;20277;-76
2024/01/05 13:46:32;;;;;;;;;;;;;;;;;;5045707;28;19964;-77
2024/01/05 13:48:57;;;;;;;;;;;;;;;;;;5056773;28;19924;-77
2024/01/05 13:51:23;;;;;;;;;;;;;;;;;;5048857;28;19963;-76
2024/01/05 13:53:49;;;;;;;;;;;;;;;;;;5048755;28;19916;-76
2024/01/05 13:56:15;;;;;;;;;;;;;;;;;;5045768;28;19967;-77
2024/01/05 13:58:41;;;;;;;;;;;;;;;;;;5047386;28;19923;-77
2024/01/05 14:01:07;;;;;;;;;;;;;;;;;;5046763;28;20197;-76
2024/01/05 14:03:32;;;;;;;;;;;;;;;;;;5051489;28;19913;-77
2024/01/05 14:06:03;;;;;;;;;;;;;;;;;;5048659;28;19913;-76
2024/01/05 14:08:29;;;;;;;;;;;;;;;;;;5048691;28;19989;-76
2024/01/05 14:10:55;;;;;;;;;;;;;;;;;;5055476;28;20427;-77
2024/01/05 14:13:21;;;;;;;;;;;;;;;;;;5032765;28;20210;-76
2024/01/05 14:15:47;;;;;;;;;;;;;;;;;;5045381;28;19912;-76
2024/01/05 14:18:12;;;;;;;;;;;;;;;;;;5054464;28;19916;-77
2024/01/05 14:20:38;;;;;;;;;;;;;;;;;;5047075;28;19929;-77
2024/01/05 14:23:06;;;;;;;;;;;;;;;;;;5043778;28;19924;-76
2024/01/05 14:25:33;;;;;;;;;;;;;;;;;;5046186;28;19916;-76
2024/01/05 14:27:59;;;;;;;;;;;;;;;;;;5043516;28;19921;-76
2024/01/05 14:30:25;;;;;;;;;;;;;;;;;;5043976;28;19952;-77
2024/01/05 14:32:51;;;;;;;;;;;;;;;;;;5047191;28;19999;-76
2024/01/05 14:35:17;;;;;;;;;;;;;;;;;;5044726;28;19928;-76
2024/01/05 14:37:43;;;;;;;;;;;;;;;;;;5044169;28;20315;-77
2024/01/05 14:40:11;;;;;;;;;;;;;;;;;;5045811;28;19921;-76
2024/01/05 14:42:37;;;;;;;;;;;;;;;;;;5043746;28;19913;-77
2024/01/05 14:45:03;;;;;;;;;;;;;;;;;;5043994;28;19928;-76
2024/01/05 14:47:29;;;;;;;;;;;;;;;;;;5043540;28;19917;-77
2024/01/05 14:49:55;;;;;;;;;;;;;;;;;;5043567;28;19927;-76
2024/01/05 14:52:20;;;;;;;;;;;;;;;;;;5037331;28;20457;-77
2024/01/05 14:54:46;;;;;;;;;;;;;;;;;;5050576;28;19913;-76
2024/01/05 14:57:12;;;;;;;;;;;;;;;;;;5044354;28;19957;-76
2024/01/05 14:59:38;;;;;;;;;;;;;;;;;;5044744;28;19925;-77
2024/01/05 15:02:04;;;;;;;;;;;;;;;;;;5046409;28;19916;-76
2024/01/05 15:04:30;;;;;;;;;;;;;;;;;;5045635;28;19932;-76
2024/01/05 15:06:57;;;;;;;;;;;;;;;;;;5046080;28;19912;-77
2024/01/05 15:09:23;;;;;;;;;;;;;;;;;;5047392;28;19921;-77
2024/01/05 15:11:49;;;;;;;;;;;;;;;;;;5047444;28;19913;-76
2024/01/05 15:14:15;;;;;;;;;;;;;;;;;;5049704;28;19924;-76
2024/01/05 15:16:41;;;;;;;;;;;;;;;;;;5052915;28;19909;-77
2024/01/05 15:19:07;;;;;;;;;;;;;;;;;;5048571;28;19963;-76
2024/01/05 15:21:33;;;;;;;;;;;;;;;;;;5046912;28;19923;-77
2024/01/05 15:23:59;;;;;;;;;;;;;;;;;;5047705;28;19995;-76
2024/01/05 15:26:25;;;;;;;;;;;;;;;;;;5049155;28;20383;-77
2024/01/05 15:28:51;;;;;;;;;;;;;;;;;;5047380;28;20551;-77
2024/01/05 15:31:17;;;;;;;;;;;;;;;;;;5048476;28;19912;-76
2024/01/05 15:33:43;;;;;;;;;;;;;;;;;;5047334;28;19913;-76
2024/01/05 15:36:09;;;;;;;;;;;;;;;;;;5051559;28;19920;-77
2024/01/05 15:38:35;;;;;;;;;;;;;;;;;;5057462;28;19913;-76
2024/01/05 15:41:01;;;;;;;;;;;;;;;;;;5051281;28;19920;-76
2024/01/05 15:43:27;;;;;;;;;;;;;;;;;;5053660;28;19917;-76
2024/01/05 15:45:52;;;;;;;;;;;;;;;;;;5045218;28;19921;-77
2024/01/05 15:48:19;;;;;;;;;;;;;;;;;;5047965;28;19955;-76
2024/01/05 15:50:45;;;;;;;;;;;;;;;;;;5047295;28;20315;-76
2024/01/05 15:53:11;;;;;;;;;;;;;;;;;;5049019;28;19912;-77
2024/01/05 15:55:37;;;;;;;;;;;;;;;;;;5058871;28;20379;-77
2024/01/05 15:58:02;;;;;;;;;;;;;;;;;;5050805;28;20509;-76
2024/01/05 16:00:28;;;;;;;;;;;;;;;;;;5051108;28;20401;-77
2024/01/05 16:02:54;;;;;;;;;;;;;;;;;;5051805;28;20385;-77
2024/01/05 16:05:20;;;;;;;;;;;;;;;;;;5051205;28;19913;-77
2024/01/05 16:07:47;;;;;;;;;;;;;;;;;;5051134;28;19913;-76
2024/01/05 16:10:13;;;;;;;;;;;;;;;;;;5050580;28;19924;-76
2024/01/05 16:12:38;;;;;;;;;;;;;;;;;;5052554;28;19920;-77
2024/01/05 16:15:04;;;;;;;;;;;;;;;;;;5054961;28;19919;-76
2024/01/05 16:17:30;;;;;;;;;;;;;;;;;;5051886;28;19916;-76
2024/01/05 16:19:56;;;;;;;;;;;;;;;;;;5050409;28;19962;-77
2024/01/05 16:22:22;;;;;;;;;;;;;;;;;;5050254;28;19924;-76
2024/01/05 16:24:48;;;;;;;;;;;;;;;;;;5050015;28;19923;-76
2024/01/05 16:27:13;;;;;;;;;;;;;;;;;;5050113;28;19925;-77
2024/01/05 16:29:39;;;;;;;;;;;;;;;;;;5058404;28;19916;-76
2024/01/05 16:32:05;;;;;;;;;;;;;;;;;;5050532;28;19971;-76
2024/01/05 16:34:31;;;;;;;;;;;;;;;;;;5057571;28;20011;-76
2024/01/05 16:36:59;;;;;;;;;;;;;;;;;;5049917;28;20268;-77
2024/01/05 16:39:24;;;;;;;;;;;;;;;;;;5050567;28;19916;-77